createdAt,value
2019-03-20T00:01:56.924Z,3.95
2019-03-20T00:05:03.496Z,3.60
2019-03-20T00:07:54.120Z,3.05
2019-03-20T00:14:13.457Z,3.22
2019-03-20T00:17:15.650Z,4.00
2019-03-20T00:20:27.437Z,3.65
2019-03-20T00:23:28.752Z,4.35
2019-03-20T00:26:30.383Z,3.67
2019-03-20T00:29:32.120Z,3.95
2019-03-20T00:32:40.248Z,3.77
2019-03-20T00:35:41.908Z,4.65
2019-03-20T00:38:43.736Z,5.05
2019-03-20T00:41:45.211Z,4.60
2019-03-20T00:44:46.813Z,3.85
2019-03-20T00:47:36.975Z,4.65
2019-03-20T00:50:49.112Z,3.95
2019-03-20T00:53:39.284Z,4.90
2019-03-20T00:56:30.688Z,4.58
2019-03-20T00:59:21.456Z,5.03
2019-03-20T01:02:30.573Z,5.08
2019-03-20T01:05:32.184Z,4.03
2019-03-20T01:08:22.344Z,3.80
2019-03-20T01:11:13.473Z,5.72
2019-03-20T01:14:14.743Z,3.90
2019-03-20T01:17:04.723Z,4.87
2019-03-20T01:20:15.170Z,4.75
2019-03-20T01:23:17.861Z,4.40
2019-03-20T01:26:07.786Z,5.22
2019-03-20T01:29:17.283Z,4.65
2019-03-20T01:32:19.519Z,5.30
2019-03-20T01:38:27.990Z,4.60
2019-03-20T01:41:37.653Z,3.75
2019-03-20T01:44:37.144Z,4.67
2019-03-20T01:47:39.251Z,4.47
2019-03-20T01:53:48.465Z,4.50
2019-03-20T01:56:50.659Z,4.97
2019-03-20T01:59:52.073Z,4.28
2019-03-20T02:02:55.099Z,6.28
2019-03-20T02:09:04.542Z,5.28
2019-03-20T02:12:06.316Z,5.87
2019-03-20T02:15:08.020Z,4.72
2019-03-20T02:18:10.181Z,4.50
2019-03-20T02:21:12.043Z,4.33
2019-03-20T02:24:13.737Z,4.42
2019-03-20T02:27:14.969Z,5.50
2019-03-20T02:30:16.986Z,4.25
2019-03-20T02:33:18.624Z,4.95
2019-03-20T02:39:30.576Z,3.87
2019-03-20T02:42:32.286Z,4.30
2019-03-20T02:45:34.335Z,3.35
2019-03-20T02:48:24.689Z,4.25
2019-03-20T02:51:34.163Z,5.15
2019-03-20T02:54:24.319Z,4.28
2019-03-20T02:57:33.737Z,5.58
2019-03-20T03:00:38.454Z,4.65
2019-03-20T03:03:39.727Z,4.80
2019-03-20T03:09:47.885Z,3.77
2019-03-20T03:12:49.804Z,4.35
2019-03-20T03:15:51.608Z,3.72
2019-03-20T03:18:53.301Z,3.40
2019-03-20T03:21:55.532Z,4.00
2019-03-20T03:24:46.047Z,3.87
2019-03-20T03:27:55.205Z,3.30
2019-03-20T03:30:57.137Z,3.27
2019-03-20T03:33:58.457Z,3.00
2019-03-20T03:40:07.451Z,3.22
2019-03-20T03:43:08.659Z,3.77
2019-03-20T03:46:08.662Z,3.25
2019-03-20T03:49:17.673Z,2.92
2019-03-20T03:52:18.925Z,3.62
2019-03-20T03:55:20.310Z,3.17
2019-03-20T03:58:21.956Z,4.00
2019-03-20T04:01:23.175Z,4.20
2019-03-20T04:04:24.121Z,4.67
2019-03-20T04:10:33.424Z,3.60
2019-03-20T04:13:23.795Z,3.25
2019-03-20T04:19:40.077Z,4.15
2019-03-20T04:22:41.343Z,3.58
2019-03-20T04:25:31.321Z,3.55
2019-03-20T04:28:21.537Z,3.95
2019-03-20T04:31:22.937Z,3.50
2019-03-20T04:34:13.474Z,4.87
2019-03-20T04:37:03.399Z,3.55
2019-03-20T04:43:02.913Z,3.33
2019-03-20T04:45:53.199Z,3.02
2019-03-20T04:48:42.920Z,3.47
2019-03-20T04:51:44.467Z,3.35
2019-03-20T04:54:45.614Z,3.70
2019-03-20T04:57:46.611Z,3.70
2019-03-20T05:00:48.467Z,3.95
2019-03-20T05:03:49.907Z,4.33
2019-03-20T05:06:58.848Z,4.05
2019-03-20T05:09:58.251Z,4.17
2019-03-20T05:13:00.203Z,3.67
2019-03-20T05:16:02.383Z,4.50
2019-03-20T05:18:52.552Z,4.55
2019-03-20T05:22:01.619Z,4.35
2019-03-20T05:25:03.177Z,3.65
2019-03-20T05:28:04.987Z,3.65
2019-03-20T05:31:06.592Z,3.83
2019-03-20T05:34:15.005Z,3.95
2019-03-20T05:37:15.845Z,4.12
2019-03-20T05:40:25.811Z,4.42
2019-03-20T05:43:27.807Z,3.75
2019-03-20T05:46:30.219Z,4.12
2019-03-20T05:49:32.466Z,4.47
2019-03-20T05:52:38.419Z,3.00
2019-03-20T05:55:40.830Z,4.67
2019-03-20T05:58:42.538Z,3.40
2019-03-20T06:07:25.106Z,4.00
2019-03-20T06:20:07.234Z,3.98
2019-03-20T06:25:59.025Z,3.90
2019-03-20T06:29:00.763Z,3.90
2019-03-20T06:38:11.796Z,4.30
2019-03-20T06:41:18.801Z,5.90
2019-03-20T06:44:20.016Z,6.07
2019-03-20T06:47:20.864Z,5.90
2019-03-20T06:50:22.677Z,5.23
2019-03-20T06:53:23.623Z,5.37
2019-03-20T06:56:25.525Z,5.10
2019-03-20T06:59:27.069Z,5.03
2019-03-20T07:05:53.079Z,5.10
2019-03-20T07:18:51.098Z,5.40
2019-03-20T07:21:52.320Z,5.00
2019-03-20T07:24:53.485Z,5.50
2019-03-20T07:27:54.451Z,5.57
2019-03-20T07:30:55.863Z,5.90
2019-03-20T07:33:57.631Z,5.90
2019-03-20T07:36:58.904Z,5.50
2019-03-20T07:39:59.891Z,5.73
2019-03-20T07:49:14.891Z,6.77
2019-03-20T07:52:16.066Z,5.00
2019-03-20T07:55:17.913Z,4.93
2019-03-20T07:58:19.628Z,5.50
2019-03-20T08:01:20.978Z,6.20
2019-03-20T08:10:46.403Z,6.00
2019-03-20T08:13:53.375Z,5.07
2019-03-20T08:16:54.643Z,5.73
2019-03-20T08:19:56.334Z,5.83
2019-03-20T08:26:18.167Z,5.87
2019-03-20T08:29:20.034Z,5.37
2019-03-20T08:32:21.488Z,7.10
2019-03-20T08:38:45.131Z,5.53
2019-03-20T08:41:48.367Z,4.90
2019-03-20T08:44:38.195Z,6.00
2019-03-20T08:47:47.200Z,5.43
2019-03-20T08:50:50.214Z,5.67
2019-03-20T08:53:51.966Z,5.30
2019-03-20T08:56:53.568Z,5.63
2019-03-20T08:59:53.434Z,5.40
2019-03-20T09:03:02.185Z,5.50
2019-03-20T09:06:03.542Z,3.77
2019-03-20T09:09:04.917Z,4.00
2019-03-20T09:12:06.384Z,4.13
2019-03-20T09:18:14.968Z,4.00
2019-03-20T09:21:16.074Z,2.60
2019-03-20T09:24:17.709Z,1.97
2019-03-20T09:27:19.711Z,2.90
2019-03-20T09:30:23.843Z,2.60
2019-03-20T09:33:25.720Z,2.70
2019-03-20T09:36:27.150Z,3.10
2019-03-20T09:39:28.947Z,2.93
2019-03-20T09:42:30.739Z,2.67
2019-03-20T09:48:53.883Z,2.40
2019-03-20T09:51:55.047Z,2.60
2019-03-20T09:57:59.138Z,2.57
2019-03-20T10:07:34.580Z,1.37
2019-03-20T10:10:36.583Z,2.70
2019-03-20T10:13:38.725Z,2.90
2019-03-20T10:16:28.588Z,1.80
2019-03-20T10:22:44.115Z,1.73
2019-03-20T10:25:45.599Z,2.70
2019-03-20T10:28:47.155Z,2.80
2019-03-20T10:31:48.976Z,3.10
2019-03-20T10:34:50.487Z,2.50
2019-03-20T10:37:51.718Z,2.70
2019-03-20T10:40:57.123Z,2.40
2019-03-20T10:43:58.471Z,2.67
2019-03-20T10:47:05.607Z,2.80
2019-03-20T10:50:07.058Z,2.27
2019-03-20T10:53:08.203Z,3.20
2019-03-20T10:56:09.884Z,2.87
2019-03-20T10:59:11.940Z,2.83
2019-03-20T11:02:13.412Z,1.83
2019-03-20T11:05:15.371Z,3.27
2019-03-20T11:08:17.036Z,2.40
2019-03-20T11:11:26.950Z,2.73
2019-03-20T11:14:22.302Z,2.20
2019-03-20T11:20:30.554Z,2.67
2019-03-20T11:23:38.030Z,2.50
2019-03-20T11:26:39.725Z,2.17
2019-03-20T11:29:42.013Z,2.60
2019-03-20T11:32:43.839Z,2.40
2019-03-20T11:35:45.102Z,2.73
2019-03-20T11:38:46.292Z,2.80
2019-03-20T11:41:48.312Z,2.93
2019-03-20T11:44:50.023Z,3.00
2019-03-20T11:47:39.935Z,3.27
2019-03-20T11:54:08.367Z,3.30
2019-03-20T11:57:09.495Z,2.87
2019-03-20T12:03:10.463Z,2.57
2019-03-20T12:06:10.497Z,2.57
2019-03-20T12:09:19.307Z,2.77
2019-03-20T12:12:20.587Z,2.77
2019-03-20T12:15:21.625Z,2.77
2019-03-20T12:18:29.568Z,3.17
2019-03-20T12:21:28.836Z,3.10
2019-03-20T12:27:52.649Z,3.77
2019-03-20T12:30:52.636Z,3.57
2019-03-20T12:33:53.719Z,3.20
2019-03-20T12:36:56.619Z,2.77
2019-03-20T12:39:57.811Z,3.07
2019-03-20T12:42:59.207Z,2.67
2019-03-20T12:46:01.035Z,3.70
2019-03-20T12:52:09.589Z,3.20
2019-03-20T12:55:10.723Z,3.57
2019-03-20T12:58:12.690Z,4.30
2019-03-20T13:01:14.668Z,3.50
2019-03-20T13:04:15.755Z,3.33
2019-03-20T13:07:05.545Z,2.87
2019-03-20T13:10:33.609Z,2.90
2019-03-20T13:13:23.206Z,3.70
2019-03-20T13:16:32.185Z,2.40
2019-03-20T13:19:21.647Z,3.70
2019-03-20T13:22:30.675Z,2.83
2019-03-20T13:25:20.704Z,3.37
2019-03-20T13:34:45.503Z,3.40
2019-03-20T13:37:46.940Z,2.77
2019-03-20T13:43:59.205Z,3.83
2019-03-20T13:47:08.280Z,2.90
2019-03-20T13:53:09.146Z,2.33
2019-03-20T13:56:18.308Z,2.77
2019-03-20T13:59:20.683Z,2.93
2019-03-20T14:05:55.593Z,2.50
2019-03-20T14:12:30.301Z,2.50
2019-03-20T14:15:32.246Z,2.07
2019-03-20T14:18:33.946Z,2.50
2019-03-20T14:28:03.975Z,3.40
2019-03-20T14:37:58.481Z,2.20
2019-03-20T14:41:00.001Z,2.83
2019-03-20T14:44:01.110Z,3.07
2019-03-20T14:47:02.761Z,2.90
2019-03-20T14:50:04.006Z,2.50
2019-03-20T14:56:13.015Z,2.50
2019-03-20T14:59:13.350Z,1.93
2019-03-20T15:02:14.536Z,2.07
2019-03-20T15:05:15.551Z,2.90
2019-03-20T15:08:16.695Z,2.00
2019-03-20T15:11:18.644Z,1.80
2019-03-20T15:14:18.684Z,2.50
2019-03-20T15:17:20.384Z,2.37
2019-03-20T15:20:21.581Z,2.23
2019-03-20T15:23:28.684Z,2.17
2019-03-20T15:26:30.233Z,2.90
2019-03-20T15:29:31.998Z,2.73
2019-03-20T15:32:33.306Z,2.63
2019-03-20T15:39:11.856Z,2.23
2019-03-20T15:45:10.905Z,3.00
2019-03-20T15:48:11.994Z,2.53
2019-03-20T15:57:37.718Z,2.90
2019-03-20T16:00:39.775Z,3.37
2019-03-20T16:10:24.737Z,2.17
2019-03-20T16:13:26.562Z,2.17
2019-03-20T16:16:28.337Z,2.70
2019-03-20T16:19:29.672Z,2.00
2019-03-20T16:22:30.920Z,2.30
2019-03-20T16:25:38.271Z,2.60
2019-03-20T16:28:39.543Z,2.17
2019-03-20T16:31:40.880Z,2.43
2019-03-20T16:34:42.157Z,2.40
2019-03-20T16:37:43.877Z,3.20
2019-03-20T16:40:45.115Z,3.07
2019-03-20T16:43:46.375Z,2.77
2019-03-20T16:49:43.130Z,2.70
2019-03-20T16:52:45.025Z,2.17
2019-03-20T16:55:52.199Z,2.40
2019-03-20T16:58:53.675Z,2.97
2019-03-20T17:01:55.747Z,3.00
2019-03-20T17:04:57.327Z,2.30
2019-03-20T17:07:59.049Z,2.80
2019-03-20T17:14:06.058Z,2.37
2019-03-20T17:17:07.982Z,2.47
2019-03-20T17:20:09.484Z,3.17
2019-03-20T17:36:50.115Z,2.00
2019-03-20T17:53:19.084Z,2.63
2019-03-20T17:59:42.536Z,2.63
2019-03-20T18:02:44.001Z,3.17
2019-03-20T18:36:11.734Z,4.10
2019-03-20T18:39:13.714Z,4.13
2019-03-20T18:42:15.223Z,4.40
2019-03-20T18:45:17.119Z,10.67
2019-03-20T18:48:18.943Z,6.30
2019-03-20T18:51:21.019Z,6.43
2019-03-20T18:54:22.370Z,5.90
2019-03-20T18:57:23.825Z,5.87
2019-03-20T19:03:32.827Z,5.30
2019-03-20T19:06:34.127Z,3.67
2019-03-20T19:09:35.855Z,4.13
2019-03-20T19:12:37.427Z,3.57
2019-03-20T19:15:38.767Z,2.90
2019-03-20T19:18:40.555Z,2.33
2019-03-20T19:21:41.860Z,3.10
2019-03-20T19:24:42.802Z,2.73
2019-03-20T19:27:44.269Z,2.60
2019-03-20T19:33:51.167Z,2.40
2019-03-20T19:40:26.287Z,2.77
2019-03-20T19:43:27.028Z,2.40
2019-03-20T19:46:28.334Z,3.43
2019-03-20T19:49:29.239Z,3.50
2019-03-20T19:52:30.413Z,2.47
2019-03-20T19:55:31.465Z,2.87
2019-03-20T19:58:33.113Z,2.40
2019-03-20T20:04:40.815Z,2.67
2019-03-20T20:07:43.007Z,3.40
2019-03-20T20:10:44.787Z,3.93
2019-03-20T20:16:52.802Z,3.70
2019-03-20T20:19:53.867Z,2.90
2019-03-20T20:22:55.477Z,4.43
2019-03-20T20:25:57.388Z,2.87
2019-03-20T20:28:58.701Z,2.87
2019-03-20T20:35:15.183Z,2.87
2019-03-20T20:38:16.693Z,3.37
2019-03-20T20:41:18.543Z,4.97
2019-03-20T20:44:19.934Z,3.77
2019-03-20T20:47:21.846Z,3.17
2019-03-20T20:50:23.304Z,3.23
2019-03-20T20:53:24.476Z,2.97
2019-03-20T20:56:26.103Z,4.07
2019-03-20T20:59:27.279Z,3.60
2019-03-20T21:05:41.253Z,3.63
2019-03-20T21:08:30.827Z,3.50
2019-03-20T21:14:35.302Z,4.43
2019-03-20T21:20:58.891Z,5.30
2019-03-20T21:24:00.920Z,4.60
2019-03-20T21:27:02.143Z,4.50
2019-03-20T21:30:03.584Z,4.50
2019-03-20T21:32:54.249Z,4.20
2019-03-20T21:36:22.376Z,3.60
2019-03-20T21:39:24.871Z,4.80
2019-03-20T21:42:25.955Z,3.60
2019-03-20T21:45:27.401Z,3.80
2019-03-20T21:48:17.479Z,3.90
2019-03-20T21:51:26.623Z,4.77
2019-03-20T21:54:27.823Z,4.17
2019-03-20T21:57:29.149Z,4.10
2019-03-20T22:00:30.741Z,4.53
2019-03-20T22:06:38.693Z,3.90
2019-03-20T22:09:41.948Z,4.10
2019-03-20T22:12:43.095Z,4.70
2019-03-20T22:15:44.732Z,3.63
2019-03-20T22:18:46.203Z,3.47
2019-03-20T22:21:47.740Z,4.00
2019-03-20T22:24:49.249Z,4.67
2019-03-20T22:27:51.152Z,4.00
2019-03-20T22:30:52.767Z,3.70
2019-03-20T22:37:00.891Z,4.37
2019-03-20T22:40:02.476Z,3.30
2019-03-20T22:43:04.071Z,4.60
2019-03-20T22:46:05.924Z,3.10
2019-03-20T22:49:07.615Z,4.10
2019-03-20T22:52:09.051Z,4.70
2019-03-20T22:55:10.369Z,4.08
2019-03-20T22:58:11.511Z,9.13
2019-03-20T23:01:12.986Z,4.58
2019-03-20T23:07:21.148Z,3.87
2019-03-20T23:10:22.672Z,3.70
2019-03-20T23:13:24.456Z,3.92
2019-03-20T23:16:25.807Z,3.40
2019-03-20T23:19:27.438Z,2.87
2019-03-20T23:22:28.900Z,3.20
2019-03-20T23:25:30.090Z,3.90
2019-03-20T23:28:31.866Z,3.70
2019-03-20T23:31:33.747Z,3.15
2019-03-20T23:37:41.704Z,3.12
2019-03-20T23:40:42.060Z,3.87
2019-03-20T23:43:52.531Z,2.95
2019-03-20T23:46:49.500Z,3.65
2019-03-20T23:49:51.345Z,3.55
2019-03-20T23:52:52.459Z,4.65
2019-03-20T23:55:53.627Z,4.12
2019-03-20T23:58:55.440Z,3.60
